Time;durP1;ratioP1;P1;durP2;ratioP2;P2;SDS_P1;SDS_P2;PMS_P1;PMS_P2;Temp;Humidity;BMP_temperature;BMP_pressure;BME280_temperature;BME280_humidity;BME280_pressure;Samples;Min_cycle;Max_cycle;Signal;HPM_P1;HPM_P2
2023/09/02 00:01:24;;;;;;;1.70;1.60;;;15.40;99.90;;;;;;5087437;28;20629;-74
2023/09/02 00:03:52;;;;;;;1.67;1.50;;;15.40;99.90;;;;;;5090067;28;20628;-74
2023/09/02 00:06:19;;;;;;;1.33;1.23;;;15.40;99.90;;;;;;5089311;28;21106;-74
2023/09/02 00:08:48;;;;;;;2.37;2.03;;;15.50;99.90;;;;;;5089200;28;20643;-74
2023/09/02 00:11:17;;;;;;;1.67;1.57;;;15.50;99.90;;;;;;5088828;28;20701;-74
2023/09/02 00:13:44;;;;;;;4.20;1.43;;;15.50;99.90;;;;;;5089951;28;20621;-74
2023/09/02 00:16:10;;;;;;;2.43;1.87;;;15.40;99.90;;;;;;5089787;28;21207;-74
2023/09/02 00:18:39;;;;;;;1.80;1.53;;;15.50;99.90;;;;;;5089145;28;20702;-74
2023/09/02 00:21:06;;;;;;;1.90;1.80;;;15.40;99.90;;;;;;5087917;28;20634;-74
2023/09/02 00:23:32;;;;;;;2.00;1.73;;;15.40;99.90;;;;;;5089679;28;21188;-74
2023/09/02 00:25:59;;;;;;;1.60;1.30;;;15.30;99.90;;;;;;5089846;28;20637;-74
2023/09/02 00:28:27;;;;;;;4.10;1.60;;;15.30;99.90;;;;;;5088973;28;20623;-74
2023/09/02 00:30:54;;;;;;;1.70;1.60;;;15.30;99.90;;;;;;5088857;28;20653;-74
2023/09/02 00:33:22;;;;;;;1.50;1.27;;;15.20;99.90;;;;;;5089130;28;21202;-74
2023/09/02 00:35:49;;;;;;;1.90;1.70;;;15.20;99.90;;;;;;5088648;28;20634;-74
2023/09/02 00:38:16;;;;;;;3.70;2.00;;;15.20;99.90;;;;;;5089142;28;20632;-74
2023/09/02 00:40:47;;;;;;;2.20;2.00;;;15.10;99.90;;;;;;5087607;28;20639;-74
2023/09/02 00:43:14;;;;;;;2.00;1.67;;;15.10;99.90;;;;;;5088859;28;21199;-74
2023/09/02 00:45:42;;;;;;;2.93;1.90;;;15.10;99.90;;;;;;5088943;28;20620;-74
2023/09/02 00:48:09;;;;;;;1.90;1.70;;;15.10;99.90;;;;;;5088355;28;20632;-74
2023/09/02 00:50:37;;;;;;;2.73;2.23;;;15.00;99.90;;;;;;5089174;28;20671;-74
2023/09/02 00:53:04;;;;;;;2.50;2.03;;;15.00;99.90;;;;;;5088950;28;20634;-74
2023/09/02 00:55:31;;;;;;;1.77;1.50;;;15.00;99.90;;;;;;5088846;28;21718;-74
2023/09/02 00:57:59;;;;;;;2.90;1.57;;;15.10;99.90;;;;;;5089589;28;21163;-74
2023/09/02 01:00:26;;;;;;;1.67;1.47;;;15.10;99.90;;;;;;5087834;27;20682;-74
2023/09/02 01:02:54;;;;;;;2.90;1.90;;;15.10;99.90;;;;;;5086940;27;20613;-74
2023/09/02 01:05:22;;;;;;;3.13;1.60;;;15.10;99.90;;;;;;5088266;28;20629;-74
2023/09/02 01:07:51;;;;;;;1.57;1.40;;;15.00;99.90;;;;;;5088408;28;21207;-74
2023/09/02 01:10:18;;;;;;;1.60;1.50;;;14.90;99.90;;;;;;5087501;28;20789;-74
2023/09/02 01:12:46;;;;;;;3.27;2.00;;;14.90;99.90;;;;;;5088809;28;20629;-74
2023/09/02 01:15:14;;;;;;;2.13;1.70;;;15.00;99.90;;;;;;5087885;28;20636;-74
2023/09/02 01:17:42;;;;;;;1.80;1.60;;;15.00;99.90;;;;;;5088300;28;20636;-74
2023/09/02 01:20:14;;;;;;;1.87;1.67;;;14.90;99.90;;;;;;5086586;28;21311;-74
2023/09/02 01:22:59;;;;;;;2.10;1.60;;;14.90;99.90;;;;;;5089129;28;21017;-74
2023/09/02 01:25:57;;;;;;;1.47;1.37;;;14.90;99.90;;;;;;5088110;28;20620;-74
2023/09/02 01:28:31;;;;;;;1.70;1.40;;;14.90;99.90;;;;;;5087841;28;20672;-74
2023/09/02 01:31:03;;;;;;;1.20;1.10;;;14.90;99.90;;;;;;5087025;28;20659;-74
2023/09/02 01:33:30;;;;;;;1.50;1.40;;;14.90;99.90;;;;;;5088188;28;21065;-74
2023/09/02 01:36:00;;;;;;;2.50;1.70;;;14.90;99.90;;;;;;5088147;28;20750;-74
2023/09/02 01:38:32;;;;;;;1.67;1.30;;;14.90;99.90;;;;;;5087441;28;20206;-74
2023/09/02 01:41:04;;;;;;;2.33;1.70;;;15.00;99.90;;;;;;5087302;28;20640;-74
2023/09/02 01:43:34;;;;;;;1.77;1.37;;;14.90;99.90;;;;;;5087215;28;21281;-74
2023/09/02 01:46:02;;;;;;;3.20;1.80;;;14.90;99.90;;;;;;5087809;28;21083;-74
2023/09/02 01:48:30;;;;;;;1.33;1.23;;;14.90;99.90;;;;;;5087823;28;20642;-74
2023/09/02 01:50:58;;;;;;;1.70;1.60;;;14.80;99.90;;;;;;5086906;28;21266;-74
2023/09/02 01:53:25;;;;;;;1.83;1.70;;;14.70;99.90;;;;;;5086986;28;20734;-74
2023/09/02 01:55:53;;;;;;;2.50;1.43;;;14.70;99.90;;;;;;5087805;28;20641;-74
2023/09/02 01:58:20;;;;;;;2.67;1.73;;;14.70;99.90;;;;;;5087411;28;20809;-74
2023/09/02 02:00:48;;;;;;;2.03;1.50;;;14.60;99.90;;;;;;5086912;28;21084;-74
2023/09/02 02:03:21;;;;;;;1.87;1.77;;;14.50;99.90;;;;;;5086811;28;20640;-74
2023/09/02 02:05:51;;;;;;;1.87;1.77;;;14.60;99.90;;;;;;5087039;28;21620;-74
2023/09/02 02:08:26;;;;;;;1.83;1.63;;;14.70;99.90;;;;;;5087157;28;22235;-74
2023/09/02 02:10:58;;;;;;;2.10;1.70;;;14.70;99.90;;;;;;5087166;28;22267;-74
2023/09/02 02:13:26;;;;;;;1.63;1.53;;;14.70;99.90;;;;;;5087275;28;20628;-74
2023/09/02 02:15:54;;;;;;;1.73;1.57;;;14.80;99.90;;;;;;5086044;28;21383;-74
2023/09/02 02:18:22;;;;;;;2.00;1.80;;;14.80;99.90;;;;;;5086670;28;20625;-74
2023/09/02 02:20:58;;;;;;;4.00;1.93;;;14.80;99.90;;;;;;5086208;28;20643;-74
2023/09/02 02:23:25;;;;;;;2.13;2.00;;;14.90;99.90;;;;;;5086853;28;20635;-74
2023/09/02 02:25:53;;;;;;;2.73;2.10;;;14.90;99.90;;;;;;5087563;28;20652;-74
2023/09/02 02:28:20;;;;;;;1.77;1.03;;;14.80;99.90;;;;;;5086004;28;21277;-74
2023/09/02 02:30:48;;;;;;;2.53;2.07;;;14.90;99.90;;;;;;5087039;28;20723;-74
2023/09/02 02:33:17;;;;;;;2.13;1.93;;;14.90;99.90;;;;;;5087153;28;20639;-74
2023/09/02 02:35:44;;;;;;;1.53;1.43;;;14.70;99.90;;;;;;5086449;28;20662;-74
2023/09/02 02:38:12;;;;;;;4.53;1.57;;;14.60;99.90;;;;;;5086346;28;20711;-74
2023/09/02 02:40:40;;;;;;;1.93;1.77;;;14.60;99.90;;;;;;5085213;28;20621;-73
2023/09/02 02:43:08;;;;;;;1.67;1.57;;;14.50;99.90;;;;;;5087814;28;20627;-73
2023/09/02 02:45:38;;;;;;;2.67;1.73;;;14.40;99.90;;;;;;5086433;28;20707;-73
2023/09/02 02:48:11;;;;;;;5.80;1.87;;;14.40;99.90;;;;;;5086903;28;20678;-73
2023/09/02 02:50:39;;;;;;;1.63;1.53;;;14.40;99.90;;;;;;5085979;28;21302;-73
2023/09/02 02:53:07;;;;;;;1.40;1.30;;;14.40;99.90;;;;;;5085775;28;20667;-73
2023/09/02 02:55:34;;;;;;;1.93;1.70;;;14.30;99.90;;;;;;5087138;28;21199;-73
2023/09/02 02:58:01;;;;;;;3.90;2.57;;;14.30;99.90;;;;;;5086848;28;20633;-73
2023/09/02 03:00:27;;;;;;;3.63;1.57;;;14.30;99.90;;;;;;5086585;28;20709;-73
2023/09/02 03:02:54;;;;;;;2.03;1.70;;;14.40;99.90;;;;;;5086460;28;20639;-73
2023/09/02 03:05:21;;;;;;;1.50;1.37;;;14.40;99.90;;;;;;5086384;28;21199;-73
2023/09/02 03:07:49;;;;;;;1.73;1.63;;;14.30;99.90;;;;;;5085578;28;20660;-73
2023/09/02 03:10:16;;;;;;;4.47;2.00;;;14.30;99.90;;;;;;5086014;28;20628;-73
2023/09/02 03:12:43;;;;;;;2.87;2.00;;;14.40;99.90;;;;;;5086280;28;20672;-73
2023/09/02 03:15:10;;;;;;;2.40;2.20;;;14.50;99.90;;;;;;5085006;28;20625;-73
2023/09/02 03:17:37;;;;;;;5.80;2.57;;;14.30;99.90;;;;;;5086368;28;20680;-73
2023/09/02 03:20:05;;;;;;;2.33;1.77;;;14.30;99.90;;;;;;5085332;28;20632;-73
2023/09/02 03:22:31;;;;;;;1.53;1.43;;;14.20;99.90;;;;;;5085647;28;21231;-73
2023/09/02 03:25:00;;;;;;;1.40;1.30;;;14.20;99.90;;;;;;5085536;28;21386;-73
2023/09/02 03:27:26;;;;;;;2.40;2.20;;;14.20;99.90;;;;;;5086598;28;20693;-73
2023/09/02 03:29:55;;;;;;;1.50;1.40;;;14.10;99.90;;;;;;5085970;28;20799;-73
2023/09/02 03:32:26;;;;;;;2.37;1.57;;;14.20;99.90;;;;;;5086556;28;20664;-73
2023/09/02 03:34:52;;;;;;;2.13;1.80;;;14.20;99.90;;;;;;5084936;28;20628;-73
2023/09/02 03:37:19;;;;;;;2.30;1.77;;;14.10;99.90;;;;;;5085483;28;20630;-73
2023/09/02 03:39:46;;;;;;;1.93;1.70;;;14.10;99.90;;;;;;5085443;28;21831;-73
2023/09/02 03:42:14;;;;;;;2.57;2.37;;;14.10;99.90;;;;;;5086502;28;20734;-73
2023/09/02 03:44:41;;;;;;;2.83;1.53;;;14.10;99.90;;;;;;5086847;28;20621;-73
2023/09/02 03:47:07;;;;;;;2.20;1.87;;;14.10;99.90;;;;;;5086931;28;21178;-73
2023/09/02 03:49:34;;;;;;;2.20;2.00;;;14.00;99.90;;;;;;5084756;28;20761;-74
2023/09/02 03:52:01;;;;;;;2.23;2.00;;;14.00;99.90;;;;;;5086024;28;20666;-75
2023/09/02 03:54:28;;;;;;;2.00;1.77;;;14.00;99.90;;;;;;5086403;28;20629;-75
2023/09/02 03:56:54;;;;;;;2.40;2.03;;;14.10;99.90;;;;;;5084608;28;20631;-75
2023/09/02 03:59:23;;;;;;;1.70;1.60;;;14.20;99.90;;;;;;5084926;28;20859;-74
2023/09/02 04:01:50;;;;;;;2.10;1.93;;;14.10;99.90;;;;;;5085106;28;20675;-75
2023/09/02 04:04:17;;;;;;;2.30;1.70;;;14.10;99.90;;;;;;5086076;28;21124;-75
2023/09/02 04:06:44;;;;;;;2.03;1.73;;;14.10;99.90;;;;;;5084922;28;21217;-75
2023/09/02 04:09:10;;;;;;;2.93;2.23;;;14.10;99.90;;;;;;5086573;28;20613;-74
2023/09/02 04:11:37;;;;;;;6.40;2.97;;;14.10;99.90;;;;;;5085843;28;21298;-75
2023/09/02 04:14:04;;;;;;;2.30;2.00;;;14.10;99.90;;;;;;5085960;28;21204;-75
2023/09/02 04:16:33;;;;;;;2.80;2.30;;;14.10;99.90;;;;;;5088301;28;20633;-75
2023/09/02 04:19:02;;;;;;;2.10;1.90;;;14.10;99.90;;;;;;5090365;28;21249;-74
2023/09/02 04:21:29;;;;;;;2.90;1.80;;;14.10;99.90;;;;;;5088810;28;20645;-74
2023/09/02 04:23:56;;;;;;;1.60;1.50;;;14.10;99.90;;;;;;5089098;28;20637;-75
2023/09/02 04:26:24;;;;;;;1.83;1.47;;;14.00;99.90;;;;;;5089783;28;20618;-75
2023/09/02 04:28:52;;;;;;;1.87;1.77;;;14.00;99.90;;;;;;5089828;28;20651;-75
2023/09/02 04:31:19;;;;;;;1.97;1.87;;;13.90;99.90;;;;;;5088371;28;20756;-74
2023/09/02 04:33:47;;;;;;;2.37;2.17;;;13.90;99.90;;;;;;5089619;28;20674;-75
2023/09/02 04:36:14;;;;;;;2.10;1.70;;;13.90;99.90;;;;;;5089143;28;21302;-74
2023/09/02 04:38:40;;;;;;;6.50;2.00;;;14.00;99.90;;;;;;5089346;28;20634;-74
2023/09/02 04:41:07;;;;;;;1.93;1.83;;;14.00;99.90;;;;;;5088965;28;20708;-75
2023/09/02 04:43:35;;;;;;;2.43;2.03;;;14.00;99.90;;;;;;5089024;28;20617;-74
2023/09/02 04:46:02;;;;;;;2.00;1.40;;;14.10;99.90;;;;;;5088173;28;20625;-75
2023/09/02 04:48:29;;;;;;;1.87;1.77;;;14.10;99.90;;;;;;5089301;28;20632;-74
2023/09/02 04:50:58;;;;;;;2.10;1.90;;;14.10;99.90;;;;;;5086946;28;20637;-76
2023/09/02 04:53:25;;;;;;;2.97;2.13;;;14.00;99.90;;;;;;5088446;28;20717;-74
2023/09/02 04:55:52;;;;;;;2.30;1.97;;;13.90;99.90;;;;;;5089016;28;20651;-74
2023/09/02 04:58:20;;;;;;;1.60;1.50;;;13.90;99.90;;;;;;5084393;28;20678;-74
2023/09/02 05:00:47;;;;;;;3.00;1.47;;;13.90;99.90;;;;;;5087916;28;20682;-74
2023/09/02 05:03:13;;;;;;;1.90;1.80;;;13.90;99.90;;;;;;5088123;28;21203;-74
2023/09/02 05:05:41;;;;;;;1.23;1.17;;;13.90;99.90;;;;;;5089103;28;20659;-74
2023/09/02 05:08:09;;;;;;;1.43;1.33;;;14.00;99.90;;;;;;5088081;28;21113;-74
2023/09/02 05:10:36;;;;;;;2.77;1.83;;;14.00;99.90;;;;;;5087746;28;20655;-74
2023/09/02 05:13:03;;;;;;;2.27;2.07;;;14.10;99.90;;;;;;5082597;28;20692;-74
2023/09/02 05:15:30;;;;;;;1.43;1.33;;;14.10;99.90;;;;;;5088013;28;20658;-74
2023/09/02 05:17:58;;;;;;;2.47;2.27;;;14.20;99.90;;;;;;5087692;28;20621;-76
2023/09/02 05:20:25;;;;;;;1.87;1.60;;;14.30;99.90;;;;;;5087222;28;20634;-74
2023/09/02 05:22:51;;;;;;;2.27;2.07;;;14.40;99.90;;;;;;5087411;28;21106;-74
2023/09/02 05:25:20;;;;;;;1.90;1.80;;;14.50;99.90;;;;;;5086847;28;20954;-75
2023/09/02 05:27:48;;;;;;;2.23;2.00;;;14.50;99.90;;;;;;5088065;28;20652;-75
2023/09/02 05:30:15;;;;;;;2.27;2.07;;;14.60;99.90;;;;;;5085890;28;21209;-74
2023/09/02 05:32:42;;;;;;;2.47;2.27;;;14.70;99.90;;;;;;5087260;28;20667;-74
2023/09/02 05:35:09;;;;;;;2.65;2.38;;;14.70;99.90;;;;;;5086500;28;20748;-76
2023/09/02 05:37:38;;;;;;;2.40;2.20;;;14.70;99.90;;;;;;5085481;28;20207;-75
2023/09/02 05:40:08;;;;;;;3.67;2.10;;;14.80;99.90;;;;;;5085448;28;20631;-77
2023/09/02 05:42:36;;;;;;;1.70;1.40;;;14.80;99.90;;;;;;5087468;28;20628;-74
2023/09/02 05:45:05;;;;;;;2.57;1.77;;;14.80;99.90;;;;;;5088252;28;20621;-73
2023/09/02 05:47:32;;;;;;;1.50;1.40;;;14.90;99.90;;;;;;5087341;28;21181;-73
2023/09/02 05:50:00;;;;;;;2.40;2.20;;;15.00;99.90;;;;;;5085703;28;20643;-74
2023/09/02 05:52:27;;;;;;;3.70;2.80;;;15.00;99.90;;;;;;5086552;28;20711;-74
2023/09/02 05:54:54;;;;;;;2.07;1.97;;;15.10;99.90;;;;;;5085951;28;20649;-75
2023/09/02 05:57:21;;;;;;;3.70;2.47;;;15.20;99.90;;;;;;5087476;28;20620;-76
2023/09/02 05:59:49;;;;;;;2.33;2.20;;;15.30;99.90;;;;;;5080357;28;21296;-78
2023/09/02 06:02:15;;;;;;;3.77;3.00;;;15.40;99.90;;;;;;5086746;28;21251;-80
2023/09/02 06:04:42;;;;;;;3.47;2.70;;;15.60;99.90;;;;;;5087209;28;20628;-79
2023/09/02 06:07:09;;;;;;;3.70;2.70;;;15.60;99.90;;;;;;5087080;28;20640;-81
2023/09/02 06:09:36;;;;;;;2.43;2.33;;;15.60;99.90;;;;;;5087047;28;20636;-81
2023/09/02 06:12:03;;;;;;;2.60;2.40;;;15.60;99.90;;;;;;5086809;28;20743;-74
2023/09/02 06:14:30;;;;;;;2.50;2.03;;;15.80;99.90;;;;;;5087039;28;21005;-73
2023/09/02 06:16:58;;;;;;;2.47;2.27;;;15.80;99.90;;;;;;5082813;28;21830;-71
2023/09/02 06:19:26;;;;;;;2.73;2.10;;;15.90;99.90;;;;;;5084855;28;21384;-73
2023/09/02 06:21:53;;;;;;;2.57;2.37;;;16.00;99.90;;;;;;5085439;28;21391;-72
2023/09/02 06:24:20;;;;;;;3.40;2.43;;;16.20;99.90;;;;;;5086711;28;20630;-72
2023/09/02 06:26:46;;;;;;;4.40;2.33;;;16.20;99.90;;;;;;5086918;28;20984;-72
2023/09/02 06:29:13;;;;;;;2.50;2.10;;;16.30;99.90;;;;;;5083777;28;21479;-67
2023/09/02 06:31:40;;;;;;;3.43;2.70;;;16.40;99.90;;;;;;5085865;28;20734;-72
2023/09/02 06:34:08;;;;;;;2.53;2.33;;;16.50;99.90;;;;;;5085264;28;20965;-72
2023/09/02 06:36:36;;;;;;;2.70;2.50;;;16.60;99.90;;;;;;5085891;28;20635;-71
2023/09/02 06:39:03;;;;;;;2.93;2.20;;;16.80;99.90;;;;;;5085214;28;20710;-71
2023/09/02 06:41:30;;;;;;;3.03;2.70;;;16.90;99.90;;;;;;5085683;28;20655;-72
2023/09/02 06:43:57;;;;;;;2.10;1.93;;;16.90;99.90;;;;;;5084720;28;20663;-71
2023/09/02 06:46:24;;;;;;;2.03;1.93;;;17.00;99.90;;;;;;5081240;28;20629;-71
2023/09/02 06:48:50;;;;;;;5.30;3.00;;;17.10;99.90;;;;;;5082063;28;20624;-71
2023/09/02 06:51:19;;;;;;;2.57;2.37;;;17.20;99.90;;;;;;5085087;28;20629;-71
2023/09/02 06:53:46;;;;;;;2.17;1.97;;;17.30;99.90;;;;;;5086270;28;20675;-72
2023/09/02 06:56:13;;;;;;;2.63;2.30;;;17.30;99.90;;;;;;5084230;28;21246;-72
2023/09/02 06:58:41;;;;;;;2.20;1.73;;;17.50;99.90;;;;;;5089518;28;20629;-71
2023/09/02 07:01:16;;;;;;;2.00;1.83;;;17.50;99.90;;;;;;5084415;28;20632;-70
2023/09/02 07:03:43;;;;;;;2.30;2.10;;;17.60;99.90;;;;;;5086339;28;21013;-71
2023/09/02 07:06:13;;;;;;;2.60;2.27;;;17.70;99.90;;;;;;5074353;28;20632;-69
2023/09/02 07:08:42;;;;;;;1.97;1.87;;;17.90;99.90;;;;;;5072994;28;20643;-69
2023/09/02 07:11:09;;;;;;;2.20;1.80;;;17.90;99.90;;;;;;5083391;28;20633;-69
2023/09/02 07:13:36;;;;;;;1.73;1.33;;;18.10;99.90;;;;;;5084040;28;20662;-69
2023/09/02 07:16:04;;;;;;;1.77;1.63;;;18.10;99.90;;;;;;5085395;28;20735;-69
2023/09/02 07:18:31;;;;;;;5.67;1.73;;;18.30;99.90;;;;;;5084942;28;20865;-69
2023/09/02 07:20:59;;;;;;;2.30;1.93;;;18.40;99.90;;;;;;5085003;28;20620;-71
2023/09/02 07:23:26;;;;;;;2.03;1.83;;;18.70;99.90;;;;;;5085187;28;20625;-70
2023/09/02 07:25:56;;;;;;;2.50;2.13;;;18.70;99.90;;;;;;5085774;28;20772;-69
2023/09/02 07:28:22;;;;;;;2.17;1.83;;;18.80;99.90;;;;;;5084784;28;20966;-69
2023/09/02 07:30:49;;;;;;;2.33;1.87;;;19.10;99.90;;;;;;5085191;28;20633;-69
2023/09/02 07:33:16;;;;;;;1.70;1.60;;;19.20;99.90;;;;;;5085979;28;20999;-71
2023/09/02 07:35:43;;;;;;;3.50;2.00;;;19.30;99.90;;;;;;5085286;28;20739;-71
2023/09/02 07:38:10;;;;;;;1.50;1.40;;;19.30;99.90;;;;;;5085561;28;20636;-70
2023/09/02 07:40:37;;;;;;;3.10;2.03;;;19.40;99.90;;;;;;5084453;28;22321;-71
2023/09/02 07:43:05;;;;;;;2.37;1.80;;;19.60;99.90;;;;;;5083233;28;21029;-71
2023/09/02 07:45:32;;;;;;;2.47;1.97;;;19.70;99.90;;;;;;5084936;28;21103;-71
2023/09/02 07:47:58;;;;;;;2.37;1.73;;;19.90;99.90;;;;;;5084328;28;21440;-71
2023/09/02 07:50:25;;;;;;;1.70;1.60;;;20.00;99.90;;;;;;5086298;28;20630;-71
2023/09/02 07:52:52;;;;;;;1.80;1.30;;;20.00;99.90;;;;;;5088237;28;20660;-71
2023/09/02 07:55:19;;;;;;;2.50;1.87;;;20.10;99.90;;;;;;5088842;28;20631;-77
2023/09/02 07:57:45;;;;;;;3.17;1.70;;;20.20;99.90;;;;;;5089131;28;20627;-72
2023/09/02 08:00:16;;;;;;;1.43;1.33;;;20.30;99.90;;;;;;5088646;28;20638;-71
2023/09/02 08:02:43;;;;;;;1.77;1.67;;;20.30;99.90;;;;;;5089787;28;21203;-71
2023/09/02 08:05:10;;;;;;;2.57;1.70;;;20.40;99.90;;;;;;5090044;28;20638;-71
2023/09/02 08:07:37;;;;;;;10.43;2.00;;;20.50;99.90;;;;;;5088922;28;20643;-71
2023/09/02 08:10:05;;;;;;;1.70;1.60;;;20.60;99.90;;;;;;5088466;28;20627;-70
2023/09/02 08:12:31;;;;;;;1.40;1.30;;;20.70;99.90;;;;;;5088550;28;21381;-73
2023/09/02 08:14:58;;;;;;;1.40;1.30;;;20.90;99.90;;;;;;5089430;28;20627;-72
2023/09/02 08:17:26;;;;;;;3.23;2.27;;;20.80;99.90;;;;;;5090255;28;20628;-72
2023/09/02 08:19:53;;;;;;;2.67;1.60;;;20.90;99.90;;;;;;5088459;28;20628;-72
2023/09/02 08:22:20;;;;;;;1.40;1.30;;;21.00;99.90;;;;;;5088867;28;20631;-72
2023/09/02 08:24:47;;;;;;;2.77;1.87;;;21.00;99.90;;;;;;5088857;28;20639;-73
2023/09/02 08:27:14;;;;;;;2.10;1.67;;;21.20;99.90;;;;;;5088927;28;20628;-72
2023/09/02 08:29:40;;;;;;;2.30;1.50;;;21.20;99.90;;;;;;5088620;28;20626;-73
2023/09/02 08:32:07;;;;;;;3.33;1.90;;;21.30;99.90;;;;;;5089364;28;20739;-72
2023/09/02 08:34:35;;;;;;;1.53;1.43;;;21.30;99.90;;;;;;5088103;28;20626;-72
2023/09/02 08:37:03;;;;;;;4.43;1.90;;;21.40;99.90;;;;;;5083041;28;20631;-73
2023/09/02 08:39:30;;;;;;;1.60;1.50;;;21.40;99.90;;;;;;5087293;28;20636;-73
2023/09/02 08:41:57;;;;;;;1.70;1.60;;;21.50;99.90;;;;;;5087642;28;21230;-73
2023/09/02 08:44:27;;;;;;;1.67;1.53;;;21.50;99.90;;;;;;5088955;28;20633;-73
2023/09/02 08:46:55;;;;;;;2.00;1.90;;;21.60;99.90;;;;;;5088456;28;20631;-73
2023/09/02 08:49:23;;;;;;;1.50;1.40;;;21.80;99.90;;;;;;5086634;28;20636;-73
2023/09/02 08:51:54;;;;;;;2.47;1.63;;;21.90;99.90;;;;;;5088570;28;20635;-73
2023/09/02 08:54:22;;;;;;;1.63;1.53;;;22.00;99.90;;;;;;5088420;28;20675;-73
2023/09/02 08:56:49;;;;;;;1.13;1.03;;;22.10;99.90;;;;;;5088269;28;21107;-73
2023/09/02 08:59:16;;;;;;;1.40;1.30;;;22.30;99.90;;;;;;5087928;28;20622;-73
2023/09/02 09:01:44;;;;;;;1.80;1.50;;;22.30;99.90;;;;;;5088483;28;21180;-73
2023/09/02 09:04:14;;;;;;;1.43;1.37;;;22.30;99.90;;;;;;5088151;28;20627;-73
2023/09/02 09:06:43;;;;;;;1.67;1.57;;;22.30;99.90;;;;;;5086897;28;20631;-73
2023/09/02 09:09:12;;;;;;;1.73;1.60;;;22.40;99.90;;;;;;5085224;28;20782;-73
2023/09/02 09:11:42;;;;;;;1.73;1.63;;;22.40;99.30;;;;;;5088109;28;20615;-73
2023/09/02 09:14:12;;;;;;;1.83;1.47;;;22.60;99.40;;;;;;5087570;28;20671;-73
2023/09/02 09:16:43;;;;;;;1.70;1.60;;;22.80;99.00;;;;;;5086980;28;21285;-73
2023/09/02 09:19:10;;;;;;;3.03;1.47;;;22.80;97.80;;;;;;5088482;28;20642;-73
2023/09/02 09:21:37;;;;;;;1.57;1.47;;;22.90;98.10;;;;;;5087302;28;21218;-72
2023/09/02 09:24:04;;;;;;;1.83;1.63;;;23.00;98.20;;;;;;5087899;27;20633;-73
2023/09/02 09:26:33;;;;;;;1.93;1.60;;;23.10;98.10;;;;;;5081818;28;20620;-74
2023/09/02 09:29:00;;;;;;;1.47;1.37;;;23.10;98.10;;;;;;5084994;28;21191;-74
2023/09/02 09:31:28;;;;;;;1.37;1.27;;;23.30;97.20;;;;;;5086175;28;20723;-73
2023/09/02 09:33:58;;;;;;;1.50;1.40;;;23.50;96.40;;;;;;5087995;28;20677;-73
2023/09/02 09:36:26;;;;;;;2.50;2.30;;;23.50;95.10;;;;;;5082766;28;20632;-73
2023/09/02 09:38:54;;;;;;;1.60;1.50;;;23.50;96.30;;;;;;5087321;28;20628;-73
2023/09/02 09:41:22;;;;;;;2.50;2.00;;;23.50;97.10;;;;;;5086499;28;21008;-73
2023/09/02 09:44:03;;;;;;;1.63;1.53;;;23.50;96.50;;;;;;5087311;28;20632;-73
2023/09/02 09:46:30;;;;;;;2.97;1.70;;;23.60;96.20;;;;;;5087443;28;20635;-73
2023/09/02 09:49:01;;;;;;;1.90;1.70;;;23.80;95.80;;;;;;5080431;28;21740;-73
2023/09/02 09:51:28;;;;;;;1.30;1.20;;;23.80;95.90;;;;;;5081899;28;20632;-73
2023/09/02 09:53:55;;;;;;;2.27;1.40;;;23.80;95.50;;;;;;5085596;28;20647;-73
2023/09/02 09:56:22;;;;;;;1.00;0.90;;;23.90;95.30;;;;;;5086906;28;20624;-73
2023/09/02 09:58:49;;;;;;;1.40;0.83;;;24.00;95.30;;;;;;5087418;28;20636;-73
2023/09/02 10:01:23;;;;;;;1.33;1.20;;;24.20;95.20;;;;;;5086099;28;20627;-73
2023/09/02 10:03:50;;;;;;;1.30;1.07;;;24.30;95.00;;;;;;5087921;28;20676;-73
2023/09/02 10:06:18;;;;;;;1.43;1.13;;;24.30;94.30;;;;;;5086308;28;20638;-73
2023/09/02 10:08:58;;;;;;;1.23;1.13;;;24.40;94.00;;;;;;5086471;28;20637;-73
2023/09/02 10:11:27;;;;;;;1.23;1.13;;;24.60;93.80;;;;;;5087182;28;20758;-74
2023/09/02 10:13:54;;;;;;;1.37;1.27;;;24.60;92.50;;;;;;5086145;28;20736;-74
2023/09/02 10:16:24;;;;;;;1.40;1.30;;;24.70;93.80;;;;;;5086483;28;20949;-75
2023/09/02 10:18:51;;;;;;;1.60;1.30;;;24.70;93.20;;;;;;5086924;28;20628;-74
2023/09/02 10:21:19;;;;;;;2.10;1.10;;;24.80;93.10;;;;;;5083804;28;20622;-74
2023/09/02 10:23:50;;;;;;;1.10;0.90;;;24.80;93.40;;;;;;5086763;28;20636;-74
2023/09/02 10:26:24;;;;;;;1.07;1.00;;;24.90;91.80;;;;;;5087323;28;20639;-74
2023/09/02 10:28:56;;;;;;;1.33;1.23;;;25.00;91.30;;;;;;5086331;28;20638;-74
2023/09/02 10:31:29;;;;;;;1.10;1.00;;;25.10;90.10;;;;;;5083902;28;21098;-75
2023/09/02 10:34:04;;;;;;;1.10;1.10;;;25.10;90.40;;;;;;5085341;28;20667;-75
2023/09/02 10:36:34;;;;;;;1.20;1.10;;;25.40;87.20;;;;;;5087499;28;20633;-74
2023/09/02 10:39:03;;;;;;;1.00;0.90;;;25.50;88.20;;;;;;5087276;28;21803;-74
2023/09/02 10:41:31;;;;;;;1.40;1.30;;;25.50;88.70;;;;;;5086854;28;20982;-74
2023/09/02 10:43:59;;;;;;;2.10;0.93;;;25.40;88.90;;;;;;5086800;28;21216;-74
2023/09/02 10:46:27;;;;;;;1.40;1.27;;;25.50;88.60;;;;;;5086580;28;21204;-74
2023/09/02 10:48:55;;;;;;;1.43;1.33;;;25.50;87.30;;;;;;5086644;28;20677;-74
2023/09/02 10:51:22;;;;;;;1.03;1.00;;;25.60;90.10;;;;;;5086534;28;20637;-75
2023/09/02 10:54:00;;;;;;;1.50;1.13;;;25.80;83.70;;;;;;5086809;28;20741;-74
2023/09/02 10:56:28;;;;;;;1.93;1.23;;;25.80;84.70;;;;;;5085902;28;21249;-74
2023/09/02 10:58:55;;;;;;;2.17;1.30;;;25.90;86.40;;;;;;5084833;28;20624;-74
2023/09/02 11:01:22;;;;;;;1.50;1.40;;;26.10;84.10;;;;;;5085256;28;20632;-74
2023/09/02 11:03:52;;;;;;;1.27;1.17;;;26.20;84.90;;;;;;5086908;28;20739;-75
2023/09/02 11:06:19;;;;;;;2.73;1.30;;;26.20;88.20;;;;;;5086843;28;20635;-75
2023/09/02 11:08:49;;;;;;;1.20;1.10;;;26.20;82.20;;;;;;5086717;28;20630;-75
2023/09/02 11:11:16;;;;;;;1.10;1.10;;;26.00;86.10;;;;;;5085063;28;20673;-75
2023/09/02 11:14:21;;;;;;;2.30;1.20;;;26.00;83.50;;;;;;5086247;28;20676;-75
2023/09/02 11:17:21;;;;;;;1.60;1.10;;;26.20;84.40;;;;;;5085913;28;20655;-75
2023/09/02 11:19:59;;;;;;;2.20;1.23;;;26.30;85.80;;;;;;5085521;28;20640;-75
2023/09/02 11:22:52;;;;;;;1.17;1.17;;;26.80;86.20;;;;;;5087166;28;20633;-75
2023/09/02 11:25:34;;;;;;;1.50;1.40;;;26.50;86.10;;;;;;5090042;28;20629;-74
2023/09/02 11:28:02;;;;;;;1.30;1.20;;;26.10;85.50;;;;;;5090029;28;20663;-75
2023/09/02 11:30:30;;;;;;;1.23;1.13;;;25.80;83.20;;;;;;5087218;28;20631;-73
2023/09/02 11:32:57;;;;;;;1.30;1.20;;;25.90;84.60;;;;;;5091728;28;20640;-73
2023/09/02 11:35:28;;;;;;;1.50;1.37;;;26.20;88.40;;;;;;5089559;28;20663;-75
2023/09/02 11:37:55;;;;;;;1.80;1.30;;;26.40;87.10;;;;;;5090706;28;21183;-75
2023/09/02 11:40:24;;;;;;;1.13;1.03;;;26.40;84.80;;;;;;5088072;28;20984;-75
2023/09/02 11:42:52;;;;;;;1.63;1.53;;;26.40;82.50;;;;;;5090013;28;20639;-75
2023/09/02 11:45:20;;;;;;;1.20;1.10;;;27.10;82.90;;;;;;5090024;28;21008;-76
2023/09/02 11:47:48;;;;;;;1.93;1.27;;;27.80;79.40;;;;;;5090095;28;21268;-75
2023/09/02 11:50:15;;;;;;;1.60;1.00;;;28.40;77.80;;;;;;5088832;28;21817;-75
2023/09/02 11:52:44;;;;;;;1.03;1.03;;;29.20;76.90;;;;;;5089848;28;21279;-73
2023/09/02 11:55:12;;;;;;;1.17;1.03;;;29.70;75.00;;;;;;5090270;28;21003;-73
2023/09/02 11:57:40;;;;;;;1.60;1.50;;;29.80;73.00;;;;;;5090050;28;20627;-74
2023/09/02 12:00:09;;;;;;;0.90;0.90;;;30.20;72.90;;;;;;5089368;28;20642;-74
2023/09/02 12:02:36;;;;;;;1.10;1.00;;;31.20;71.80;;;;;;5089252;27;20647;-73
2023/09/02 12:05:03;;;;;;;1.63;1.10;;;31.90;64.60;;;;;;5089330;28;20624;-74
2023/09/02 12:07:32;;;;;;;1.30;1.20;;;32.20;63.10;;;;;;5089478;28;20638;-74
2023/09/02 12:10:06;;;;;;;1.17;1.07;;;31.80;61.70;;;;;;5089213;28;20623;-74
2023/09/02 12:12:33;;;;;;;1.80;1.23;;;30.80;62.50;;;;;;5090159;28;20623;-74
2023/09/02 12:15:01;;;;;;;1.00;1.00;;;30.20;67.00;;;;;;5089380;28;21215;-75
2023/09/02 12:17:28;;;;;;;4.63;1.10;;;29.70;67.90;;;;;;5088321;28;20634;-75
2023/09/02 12:19:55;;;;;;;2.40;1.57;;;29.30;68.00;;;;;;5088323;28;20628;-75
2023/09/02 12:22:22;;;;;;;1.57;1.27;;;29.00;70.50;;;;;;5089851;27;20620;-75
2023/09/02 12:24:49;;;;;;;1.63;1.53;;;28.70;72.30;;;;;;5090149;28;20635;-75
2023/09/02 12:27:18;;;;;;;2.30;1.20;;;28.60;70.10;;;;;;5088735;28;20640;-75
2023/09/02 12:29:54;;;;;;;3.90;1.10;;;28.60;70.90;;;;;;5089021;28;20638;-75
2023/09/02 12:32:21;;;;;;;1.50;1.40;;;28.50;71.90;;;;;;5087205;28;20635;-75
2023/09/02 12:34:47;;;;;;;1.63;1.20;;;28.30;72.20;;;;;;5089142;28;20678;-75
2023/09/02 12:37:16;;;;;;;1.77;1.67;;;28.10;72.40;;;;;;5089197;28;20647;-75
2023/09/02 12:39:43;;;;;;;1.60;1.50;;;27.90;72.60;;;;;;5087945;28;20633;-75
2023/09/02 12:42:16;;;;;;;1.27;1.17;;;27.60;73.70;;;;;;5088311;28;20624;-75
2023/09/02 12:44:53;;;;;;;1.50;1.40;;;27.30;78.10;;;;;;5088414;28;20733;-75
2023/09/02 12:47:21;;;;;;;3.40;1.77;;;27.10;78.20;;;;;;5088345;28;20647;-73
2023/09/02 12:49:48;;;;;;;2.47;1.10;;;27.00;77.60;;;;;;5087952;28;20733;-73
2023/09/02 12:52:17;;;;;;;0.93;0.90;;;26.80;78.70;;;;;;5088628;28;20628;-73
2023/09/02 12:54:47;;;;;;;1.60;1.27;;;26.90;75.70;;;;;;5087655;28;20759;-73